Historique des mesures à Cassis (13260), France
Quotidien Résumé Mars 1, 2018 Unités:  Métrique/US    US   Métrique
« Précédent (Jour)
Suivant (Jour) »
Quotidien Hebdomadaire Mensuel Annuel Période au choix
  Maximum: Minimum: Moyenne:
Température: 32 °F /  TemperatureC °C 41.9 °F /  5.5 °C 45.9 °F /  7.7 °C
Point de rosée: 32 °F /  DewpointC °C 31.6 °F /  -0.2 °C 36.5 °F /  2.5 °C
Humidité: Humidity % 66 % 66 %
Vitesse du vent: WindSpeedKMH mph /  0 km/h - 9.1 mph /  14.6 km/h
Rafales: WindSpeedGustKMH mph /  0 km/h - -
Vent:- - ESE
Pression: 0 in /  PressurehPa hPa 29.2 in /  990.1 hPa -
Précipitations: 0 in /  0.0 mm    
Historical Graphs
 
 
Mesures pour : Mars 1, 2018
Heure Temperature Point de rosée Pression Vent Vitesse du vent Rafales Humidité Pluie (par heure) Conditions
32 °F /  TemperatureC °C 32 °F /  DewpointC °C 0 in /  PressurehPa hPa Calm     Humidity % 0 in /  HourlyPrecipMM mm SoftwareType W/m2
00:12 42.3 °F /  5.7 °C 31.6 °F /  -0.2 °C 29.5 in /  999.2 hPa ESE 11.9 mph /  19.2 km/h 14.0 mph /  22.5 km/h 66 % 0 in /  0.0 mm open2300-1.11 W/m2
01:12 41.9 °F /  5.5 °C 31.6 °F /  -0.2 °C 29.5 in /  998.9 hPa SE 9.0 mph /  14.5 km/h 14.8 mph /  23.8 km/h 67 % 0 in /  0.0 mm open2300-1.11 W/m2
02:12 42.6 °F /  5.9 °C 32.4 °F /  0.2 °C 29.5 in /  998.5 hPa SE 15.1 mph /  24.3 km/h 15.1 mph /  24.3 km/h 67 % 0 in /  0.0 mm open2300-1.11 W/m2
03:12 43 °F /  6.1 °C 32.7 °F /  0.4 °C 29.5 in /  997.5 hPa ESE 16.3 mph /  26.2 km/h 25.6 mph /  41.2 km/h 67 % 0 in /  0.0 mm open2300-1.11 W/m2
04:12 43.5 °F /  6.4 °C 34 °F /  1.1 °C 29.5 in /  997.5 hPa East 7.2 mph /  11.6 km/h 13.4 mph /  21.6 km/h 69 % 0 in /  0.0 mm open2300-1.11 W/m2
05:12 43.7 °F /  6.5 °C 34.2 °F /  1.2 °C 29.4 in /  996.5 hPa ESE 15.1 mph /  24.3 km/h 15.1 mph /  24.3 km/h 69 % 0 in /  0.0 mm open2300-1.11 W/m2
06:12 44.2 °F /  6.8 °C 34.7 °F /  1.5 °C 29.4 in /  996.5 hPa ESE 11.9 mph /  19.2 km/h 15.1 mph /  24.3 km/h 69 % 0 in /  0.0 mm open2300-1.11 W/m2
07:12 44.6 °F /  7.0 °C 35.4 °F /  1.9 °C 29.4 in /  996.5 hPa East 6.1 mph /  9.8 km/h 14.3 mph /  23 km/h 70 % 0 in /  0.0 mm open2300-1.11 W/m2
09:12 45.3 °F /  7.4 °C 36.5 °F /  2.5 °C 29.4 in /  995.8 hPa East 11.1 mph /  17.9 km/h 11.1 mph /  17.9 km/h 71 % 0 in /  0.0 mm open2300-1.11 W/m2
10:12 46 °F /  7.8 °C 36.9 °F /  2.7 °C 29.4 in /  995.5 hPa NE 11.6 mph /  18.7 km/h 12.6 mph /  20.3 km/h 70 % 0 in /  0.0 mm open2300-1.11 W/m2
11:12 46.9 °F /  8.3 °C 37.2 °F /  2.9 °C 29.4 in /  995.1 hPa ESE 2.6 mph /  4.2 km/h 6.1 mph /  9.8 km/h 69 % 0 in /  0.0 mm open2300-1.11 W/m2
12:11 48.4 °F /  9.1 °C 37.9 °F /  3.3 °C 29.4 in /  994.1 hPa ESE 10.5 mph /  16.9 km/h 10.5 mph /  16.9 km/h 67 % 0 in /  0.0 mm open2300-1.11 W/m2
13:12 49.3 °F /  9.6 °C 38.8 °F /  3.8 °C 29.4 in /  993.8 hPa NE 10.1 mph /  16.3 km/h 10.1 mph /  16.3 km/h 67 % 0 in /  0.0 mm open2300-1.11 W/m2
14:12 49.8 °F /  9.9 °C 38.8 °F /  3.8 °C 29.3 in /  992.8 hPa ESE 12.6 mph /  20.3 km/h 12.6 mph /  20.3 km/h 66 % 0 in /  0.0 mm open2300-1.11 W/m2
16:12 49.8 °F /  9.9 °C 39.4 °F /  4.1 °C 29.3 in /  993.1 hPa East 5.8 mph /  9.3 km/h 6.8 mph /  10.9 km/h 67 % 0 in /  0.0 mm open2300-1.11 W/m2
17:12 49.3 °F /  9.6 °C 39 °F /  3.9 °C 29.3 in /  992.4 hPa NNE 2.9 mph /  4.7 km/h 10.8 mph /  17.4 km/h 68 % 0 in /  0.0 mm open2300-1.11 W/m2
18:12 48.9 °F /  9.4 °C 38.8 °F /  3.8 °C 29.3 in /  992.8 hPa SSE 14.3 mph /  23 km/h 14.3 mph /  23 km/h 68 % 0 in /  0.0 mm open2300-1.11 W/m2
19:12 48.9 °F /  9.4 °C 39.2 °F /  4.0 °C 29.3 in /  992.4 hPa ESE 10.1 mph /  16.3 km/h 10.1 mph /  16.3 km/h 69 % 0 in /  0.0 mm open2300-1.11 W/m2
21:12 48.9 °F /  9.4 °C 39.9 °F /  4.4 °C 29.3 in /  991.8 hPa ESE 6.8 mph /  10.9 km/h 11.1 mph /  17.9 km/h 71 % 0 in /  0.0 mm open2300-1.11 W/m2
22:12 49.3 °F /  9.6 °C 40.3 °F /  4.6 °C 29.3 in /  990.7 hPa ESE 5.8 mph /  9.3 km/h 5.8 mph /  9.3 km/h 71 % 0 in /  0.0 mm open2300-1.11 W/m2
23:12 49.8 °F /  9.9 °C 41.2 °F /  5.1 °C 29.2 in /  990.1 hPa SE 2.6 mph /  4.2 km/h 16.6 mph /  26.7 km/h 72 % 0 in /  0.0 mm open2300-1.11 W/m2
Observations météo à CASSIS
WU-History script by Weather Underground - 1 mb